sensor_id;sensor_type;location;lat;lon;timestamp;P1;durP1;ratioP1;P2;durP2;ratioP2
1677;SDS011;6034;46.864;15.216;2023-06-26T05:01:34;11.50;;;10.40;;
1677;SDS011;6034;46.864;15.216;2023-06-26T05:04:04;10.87;;;9.77;;
1677;SDS011;6034;46.864;15.216;2023-06-26T05:06:32;10.43;;;9.20;;
1677;SDS011;6034;46.864;15.216;2023-06-26T05:09:00;10.87;;;9.80;;
1677;SDS011;6034;46.864;15.216;2023-06-26T05:11:27;10.67;;;9.67;;
1677;SDS011;6034;46.864;15.216;2023-06-26T05:13:55;12.80;;;9.33;;
1677;SDS011;6034;46.864;15.216;2023-06-26T05:16:22;10.30;;;9.30;;
1677;SDS011;6034;46.864;15.216;2023-06-26T05:18:51;11.40;;;10.20;;
1677;SDS011;6034;46.864;15.216;2023-06-26T05:21:20;11.57;;;10.10;;
1677;SDS011;6034;46.864;15.216;2023-06-26T05:23:47;10.70;;;9.70;;
1677;SDS011;6034;46.864;15.216;2023-06-26T05:26:16;11.83;;;10.67;;
1677;SDS011;6034;46.864;15.216;2023-06-26T05:28:44;11.40;;;10.20;;
1677;SDS011;6034;46.864;15.216;2023-06-26T05:31:13;10.53;;;9.43;;
1677;SDS011;6034;46.864;15.216;2023-06-26T05:33:42;11.30;;;10.20;;
1677;SDS011;6034;46.864;15.216;2023-06-26T05:36:12;10.20;;;9.20;;
1677;SDS011;6034;46.864;15.216;2023-06-26T05:38:40;10.80;;;9.70;;
1677;SDS011;6034;46.864;15.216;2023-06-26T05:41:08;11.33;;;9.60;;
1677;SDS011;6034;46.864;15.216;2023-06-26T05:43:36;12.07;;;9.90;;
1677;SDS011;6034;46.864;15.216;2023-06-26T05:46:04;10.73;;;9.73;;
1677;SDS011;6034;46.864;15.216;2023-06-26T05:48:31;10.80;;;9.77;;
1677;SDS011;6034;46.864;15.216;2023-06-26T05:50:59;12.70;;;9.57;;
1677;SDS011;6034;46.864;15.216;2023-06-26T05:53:30;10.93;;;9.60;;
1677;SDS011;6034;46.864;15.216;2023-06-26T05:55:58;11.10;;;9.60;;
1677;SDS011;6034;46.864;15.216;2023-06-26T05:58:26;10.60;;;9.60;;
1677;SDS011;6034;46.864;15.216;2023-06-26T06:00:54;11.90;;;9.57;;
1677;SDS011;6034;46.864;15.216;2023-06-26T06:03:21;11.63;;;10.43;;
1677;SDS011;6034;46.864;15.216;2023-06-26T06:05:49;10.53;;;9.50;;
1677;SDS011;6034;46.864;15.216;2023-06-26T06:08:17;10.87;;;9.77;;
1677;SDS011;6034;46.864;15.216;2023-06-26T06:10:46;13.20;;;9.53;;
1677;SDS011;6034;46.864;15.216;2023-06-26T06:13:13;12.33;;;10.20;;
1677;SDS011;6034;46.864;15.216;2023-06-26T06:15:41;10.93;;;9.77;;
1677;SDS011;6034;46.864;15.216;2023-06-26T06:18:09;12.50;;;10.07;;
1677;SDS011;6034;46.864;15.216;2023-06-26T06:20:37;10.13;;;9.20;;
1677;SDS011;6034;46.864;15.216;2023-06-26T06:23:04;10.90;;;9.80;;
1677;SDS011;6034;46.864;15.216;2023-06-26T06:25:32;10.93;;;9.83;;
1677;SDS011;6034;46.864;15.216;2023-06-26T06:28:01;12.10;;;9.93;;
1677;SDS011;6034;46.864;15.216;2023-06-26T06:30:29;11.23;;;10.13;;
1677;SDS011;6034;46.864;15.216;2023-06-26T06:32:57;10.57;;;9.47;;
1677;SDS011;6034;46.864;15.216;2023-06-26T06:35:25;11.20;;;10.10;;
1677;SDS011;6034;46.864;15.216;2023-06-26T06:37:52;9.93;;;8.60;;
1677;SDS011;6034;46.864;15.216;2023-06-26T06:40:20;10.17;;;9.20;;
1677;SDS011;6034;46.864;15.216;2023-06-26T06:42:48;9.93;;;8.53;;
1677;SDS011;6034;46.864;15.216;2023-06-26T06:45:17;10.37;;;9.37;;
1677;SDS011;6034;46.864;15.216;2023-06-26T06:47:45;10.87;;;9.77;;
1677;SDS011;6034;46.864;15.216;2023-06-26T06:50:13;10.20;;;9.20;;
1677;SDS011;6034;46.864;15.216;2023-06-26T06:52:43;10.70;;;9.70;;
1677;SDS011;6034;46.864;15.216;2023-06-26T06:55:10;10.60;;;9.53;;
1677;SDS011;6034;46.864;15.216;2023-06-26T06:57:38;10.13;;;9.07;;
1677;SDS011;6034;46.864;15.216;2023-06-26T07:00:07;9.50;;;8.60;;
1677;SDS011;6034;46.864;15.216;2023-06-26T07:02:36;11.83;;;9.20;;
1677;SDS011;6034;46.864;15.216;2023-06-26T07:05:04;10.80;;;9.70;;
1677;SDS011;6034;46.864;15.216;2023-06-26T07:07:32;9.70;;;8.70;;
1677;SDS011;6034;46.864;15.216;2023-06-26T07:10:00;8.90;;;8.10;;
1677;SDS011;6034;46.864;15.216;2023-06-26T07:12:28;10.83;;;9.30;;
1677;SDS011;6034;46.864;15.216;2023-06-26T07:14:55;12.50;;;9.67;;
1677;SDS011;6034;46.864;15.216;2023-06-26T07:17:23;10.23;;;9.00;;
1677;SDS011;6034;46.864;15.216;2023-06-26T07:19:52;9.67;;;8.77;;
1677;SDS011;6034;46.864;15.216;2023-06-26T07:22:20;10.20;;;9.30;;
1677;SDS011;6034;46.864;15.216;2023-06-26T07:24:48;10.73;;;9.63;;
1677;SDS011;6034;46.864;15.216;2023-06-26T07:27:15;9.87;;;8.87;;
1677;SDS011;6034;46.864;15.216;2023-06-26T07:29:44;10.07;;;9.07;;
1677;SDS011;6034;46.864;15.216;2023-06-26T07:32:11;10.20;;;9.20;;
1677;SDS011;6034;46.864;15.216;2023-06-26T07:34:39;9.53;;;8.63;;
1677;SDS011;6034;46.864;15.216;2023-06-26T07:37:08;10.00;;;9.17;;
1677;SDS011;6034;46.864;15.216;2023-06-26T07:39:36;10.83;;;9.83;;
1677;SDS011;6034;46.864;15.216;2023-06-26T07:42:03;10.70;;;8.87;;
1677;SDS011;6034;46.864;15.216;2023-06-26T07:44:31;9.33;;;8.43;;
1677;SDS011;6034;46.864;15.216;2023-06-26T07:46:58;9.97;;;8.97;;
1677;SDS011;6034;46.864;15.216;2023-06-26T07:49:26;10.33;;;9.33;;
1677;SDS011;6034;46.864;15.216;2023-06-26T07:51:54;10.60;;;9.50;;
1677;SDS011;6034;46.864;15.216;2023-06-26T07:54:23;10.87;;;9.33;;
1677;SDS011;6034;46.864;15.216;2023-06-26T07:56:54;10.43;;;9.43;;
1677;SDS011;6034;46.864;15.216;2023-06-26T07:59:22;10.83;;;9.83;;
1677;SDS011;6034;46.864;15.216;2023-06-26T08:01:50;9.73;;;8.70;;
1677;SDS011;6034;46.864;15.216;2023-06-26T08:04:18;9.97;;;8.97;;
1677;SDS011;6034;46.864;15.216;2023-06-26T08:06:47;9.67;;;8.77;;
1677;SDS011;6034;46.864;15.216;2023-06-26T08:09:15;12.43;;;9.37;;
1677;SDS011;6034;46.864;15.216;2023-06-26T08:11:45;10.43;;;9.43;;
1677;SDS011;6034;46.864;15.216;2023-06-26T08:14:13;11.93;;;10.73;;
1677;SDS011;6034;46.864;15.216;2023-06-26T08:16:40;11.27;;;9.10;;
1677;SDS011;6034;46.864;15.216;2023-06-26T08:19:09;10.67;;;9.60;;
1677;SDS011;6034;46.864;15.216;2023-06-26T08:21:36;10.60;;;9.57;;
1677;SDS011;6034;46.864;15.216;2023-06-26T08:24:04;10.33;;;9.43;;
1677;SDS011;6034;46.864;15.216;2023-06-26T08:26:31;10.20;;;9.20;;
1677;SDS011;6034;46.864;15.216;2023-06-26T08:29:00;11.30;;;9.87;;
1677;SDS011;6034;46.864;15.216;2023-06-26T08:31:32;11.20;;;10.10;;
1677;SDS011;6034;46.864;15.216;2023-06-26T08:34:01;11.07;;;9.97;;
1677;SDS011;6034;46.864;15.216;2023-06-26T08:36:28;9.90;;;8.87;;
1677;SDS011;6034;46.864;15.216;2023-06-26T08:38:56;9.77;;;8.97;;
1677;SDS011;6034;46.864;15.216;2023-06-26T08:41:24;9.17;;;8.13;;
1677;SDS011;6034;46.864;15.216;2023-06-26T08:43:51;9.40;;;8.60;;
1677;SDS011;6034;46.864;15.216;2023-06-26T08:46:21;10.50;;;9.50;;
1677;SDS011;6034;46.864;15.216;2023-06-26T08:48:48;10.27;;;9.23;;
1677;SDS011;6034;46.864;15.216;2023-06-26T08:51:19;10.20;;;9.20;;
1677;SDS011;6034;46.864;15.216;2023-06-26T08:53:52;9.47;;;8.60;;
1677;SDS011;6034;46.864;15.216;2023-06-26T08:56:24;10.77;;;9.77;;
1677;SDS011;6034;46.864;15.216;2023-06-26T08:58:54;11.33;;;10.23;;
1677;SDS011;6034;46.864;15.216;2023-06-26T09:01:23;10.10;;;9.10;;
1677;SDS011;6034;46.864;15.216;2023-06-26T09:03:51;10.43;;;9.53;;
1677;SDS011;6034;46.864;15.216;2023-06-26T09:06:19;9.93;;;9.00;;
1677;SDS011;6034;46.864;15.216;2023-06-26T09:08:46;10.87;;;9.77;;
1677;SDS011;6034;46.864;15.216;2023-06-26T09:11:13;10.10;;;9.20;;
1677;SDS011;6034;46.864;15.216;2023-06-26T09:13:41;9.63;;;8.73;;
1677;SDS011;6034;46.864;15.216;2023-06-26T09:16:09;9.73;;;8.73;;
1677;SDS011;6034;46.864;15.216;2023-06-26T09:18:39;10.73;;;9.73;;
1677;SDS011;6034;46.864;15.216;2023-06-26T09:21:07;9.67;;;8.77;;
1677;SDS011;6034;46.864;15.216;2023-06-26T09:23:36;10.30;;;9.40;;
1677;SDS011;6034;46.864;15.216;2023-06-26T09:26:05;10.23;;;9.23;;
1677;SDS011;6034;46.864;15.216;2023-06-26T09:28:34;10.63;;;9.50;;
1677;SDS011;6034;46.864;15.216;2023-06-26T09:31:02;10.30;;;9.40;;
1677;SDS011;6034;46.864;15.216;2023-06-26T09:33:33;9.57;;;8.57;;
1677;SDS011;6034;46.864;15.216;2023-06-26T09:36:06;9.03;;;8.13;;
1677;SDS011;6034;46.864;15.216;2023-06-26T09:38:35;9.80;;;8.80;;
1677;SDS011;6034;46.864;15.216;2023-06-26T09:41:02;9.90;;;9.00;;
1677;SDS011;6034;46.864;15.216;2023-06-26T09:43:30;9.80;;;8.90;;
1677;SDS011;6034;46.864;15.216;2023-06-26T09:45:58;9.17;;;8.20;;
1677;SDS011;6034;46.864;15.216;2023-06-26T09:48:25;10.50;;;9.47;;
1677;SDS011;6034;46.864;15.216;2023-06-26T09:50:53;10.23;;;9.33;;
1677;SDS011;6034;46.864;15.216;2023-06-26T09:53:22;10.53;;;8.87;;
1677;SDS011;6034;46.864;15.216;2023-06-26T09:55:51;9.00;;;8.10;;
1677;SDS011;6034;46.864;15.216;2023-06-26T09:58:19;8.80;;;8.00;;
1677;SDS011;6034;46.864;15.216;2023-06-26T10:00:47;10.03;;;9.07;;
1677;SDS011;6034;46.864;15.216;2023-06-26T10:03:15;9.43;;;8.50;;
1677;SDS011;6034;46.864;15.216;2023-06-26T10:05:43;9.30;;;8.50;;
1677;SDS011;6034;46.864;15.216;2023-06-26T10:08:12;9.80;;;8.90;;
1677;SDS011;6034;46.864;15.216;2023-06-26T10:10:41;9.00;;;8.13;;
1677;SDS011;6034;46.864;15.216;2023-06-26T10:13:14;10.13;;;9.20;;
1677;SDS011;6034;46.864;15.216;2023-06-26T10:15:45;9.50;;;8.60;;
1677;SDS011;6034;46.864;15.216;2023-06-26T10:18:14;9.90;;;8.90;;
1677;SDS011;6034;46.864;15.216;2023-06-26T10:20:43;8.67;;;7.87;;
1677;SDS011;6034;46.864;15.216;2023-06-26T10:23:15;9.67;;;8.67;;
1677;SDS011;6034;46.864;15.216;2023-06-26T10:25:46;10.63;;;9.63;;
1677;SDS011;6034;46.864;15.216;2023-06-26T10:28:18;9.20;;;8.40;;
1677;SDS011;6034;46.864;15.216;2023-06-26T10:30:48;9.80;;;8.80;;
1677;SDS011;6034;46.864;15.216;2023-06-26T10:33:17;30.10;;;11.10;;
1677;SDS011;6034;46.864;15.216;2023-06-26T10:35:45;9.30;;;8.30;;
1677;SDS011;6034;46.864;15.216;2023-06-26T10:38:13;23.43;;;8.40;;
1677;SDS011;6034;46.864;15.216;2023-06-26T10:40:40;10.73;;;9.13;;
1677;SDS011;6034;46.864;15.216;2023-06-26T10:43:11;10.50;;;9.40;;
1677;SDS011;6034;46.864;15.216;2023-06-26T10:45:43;8.63;;;7.70;;
1677;SDS011;6034;46.864;15.216;2023-06-26T10:48:12;9.40;;;8.57;;
1677;SDS011;6034;46.864;15.216;2023-06-26T10:50:41;9.73;;;8.93;;
1677;SDS011;6034;46.864;15.216;2023-06-26T10:53:10;9.20;;;8.30;;
1677;SDS011;6034;46.864;15.216;2023-06-26T10:55:43;9.20;;;8.30;;
1677;SDS011;6034;46.864;15.216;2023-06-26T10:58:28;12.70;;;8.43;;
1677;SDS011;6034;46.864;15.216;2023-06-26T11:01:17;8.70;;;7.80;;
1677;SDS011;6034;46.864;15.216;2023-06-26T11:03:46;8.37;;;7.60;;
1677;SDS011;6034;46.864;15.216;2023-06-26T11:06:17;7.83;;;7.13;;
1677;SDS011;6034;46.864;15.216;2023-06-26T11:08:46;8.03;;;7.23;;
1677;SDS011;6034;46.864;15.216;2023-06-26T11:11:15;9.40;;;8.50;;
1677;SDS011;6034;46.864;15.216;2023-06-26T11:13:45;9.20;;;8.30;;
1677;SDS011;6034;46.864;15.216;2023-06-26T11:16:13;9.30;;;8.50;;
1677;SDS011;6034;46.864;15.216;2023-06-26T11:18:41;8.40;;;7.60;;
1677;SDS011;6034;46.864;15.216;2023-06-26T11:21:09;7.90;;;6.97;;
1677;SDS011;6034;46.864;15.216;2023-06-26T11:23:39;8.63;;;7.90;;
1677;SDS011;6034;46.864;15.216;2023-06-26T11:26:13;8.67;;;7.97;;
1677;SDS011;6034;46.864;15.216;2023-06-26T11:28:50;9.40;;;8.37;;
1677;SDS011;6034;46.864;15.216;2023-06-26T11:31:26;10.20;;;9.27;;
1677;SDS011;6034;46.864;15.216;2023-06-26T11:33:55;9.47;;;7.50;;
1677;SDS011;6034;46.864;15.216;2023-06-26T11:36:23;8.80;;;7.97;;
1677;SDS011;6034;46.864;15.216;2023-06-26T11:38:54;8.87;;;8.03;;
1677;SDS011;6034;46.864;15.216;2023-06-26T11:41:22;11.27;;;8.73;;
1677;SDS011;6034;46.864;15.216;2023-06-26T11:43:52;8.57;;;7.47;;
1677;SDS011;6034;46.864;15.216;2023-06-26T11:46:21;8.47;;;7.77;;
1677;SDS011;6034;46.864;15.216;2023-06-26T11:48:49;8.47;;;7.67;;
1677;SDS011;6034;46.864;15.216;2023-06-26T11:51:17;8.13;;;7.33;;
1677;SDS011;6034;46.864;15.216;2023-06-26T11:53:45;9.13;;;7.90;;
1677;SDS011;6034;46.864;15.216;2023-06-26T11:56:14;8.87;;;7.97;;
1677;SDS011;6034;46.864;15.216;2023-06-26T11:58:57;7.67;;;6.97;;
1677;SDS011;6034;46.864;15.216;2023-06-26T12:01:30;9.00;;;7.83;;
1677;SDS011;6034;46.864;15.216;2023-06-26T12:04:00;8.47;;;7.77;;
1677;SDS011;6034;46.864;15.216;2023-06-26T12:06:29;9.17;;;8.37;;
1677;SDS011;6034;46.864;15.216;2023-06-26T12:08:57;8.97;;;8.17;;
1677;SDS011;6034;46.864;15.216;2023-06-26T12:11:26;9.37;;;8.47;;
1677;SDS011;6034;46.864;15.216;2023-06-26T12:13:55;8.03;;;7.23;;
1677;SDS011;6034;46.864;15.216;2023-06-26T12:16:24;8.77;;;7.97;;
1677;SDS011;6034;46.864;15.216;2023-06-26T12:18:52;8.60;;;7.90;;
1677;SDS011;6034;46.864;15.216;2023-06-26T12:21:28;7.90;;;7.20;;
1677;SDS011;6034;46.864;15.216;2023-06-26T12:24:13;8.20;;;7.30;;
1677;SDS011;6034;46.864;15.216;2023-06-26T12:26:42;8.73;;;7.50;;
1677;SDS011;6034;46.864;15.216;2023-06-26T12:29:11;8.53;;;7.73;;
1677;SDS011;6034;46.864;15.216;2023-06-26T12:31:40;9.07;;;8.20;;
1677;SDS011;6034;46.864;15.216;2023-06-26T12:34:09;7.97;;;7.27;;
1677;SDS011;6034;46.864;15.216;2023-06-26T12:36:40;7.90;;;6.70;;
1677;SDS011;6034;46.864;15.216;2023-06-26T12:39:09;8.83;;;8.10;;
1677;SDS011;6034;46.864;15.216;2023-06-26T12:44:27;8.20;;;7.47;;
1677;SDS011;6034;46.864;15.216;2023-06-26T12:46:56;9.00;;;8.10;;
1677;SDS011;6034;46.864;15.216;2023-06-26T12:49:30;7.37;;;6.70;;
1677;SDS011;6034;46.864;15.216;2023-06-26T12:51:59;7.93;;;7.23;;
1677;SDS011;6034;46.864;15.216;2023-06-26T12:54:27;7.73;;;7.03;;
1677;SDS011;6034;46.864;15.216;2023-06-26T12:56:55;8.70;;;7.80;;
1677;SDS011;6034;46.864;15.216;2023-06-26T12:59:22;8.87;;;8.03;;
1677;SDS011;6034;46.864;15.216;2023-06-26T13:01:51;8.10;;;7.30;;
1677;SDS011;6034;46.864;15.216;2023-06-26T13:04:19;8.30;;;7.50;;
1677;SDS011;6034;46.864;15.216;2023-06-26T13:06:46;9.33;;;7.70;;
1677;SDS011;6034;46.864;15.216;2023-06-26T13:09:13;7.40;;;6.80;;
1677;SDS011;6034;46.864;15.216;2023-06-26T13:11:41;8.03;;;7.23;;
1677;SDS011;6034;46.864;15.216;2023-06-26T13:14:08;9.53;;;7.57;;
1677;SDS011;6034;46.864;15.216;2023-06-26T13:16:36;7.97;;;7.23;;
1677;SDS011;6034;46.864;15.216;2023-06-26T13:19:05;8.57;;;7.70;;
1677;SDS011;6034;46.864;15.216;2023-06-26T13:21:32;8.00;;;7.30;;
1677;SDS011;6034;46.864;15.216;2023-06-26T13:24:00;7.67;;;6.97;;
1677;SDS011;6034;46.864;15.216;2023-06-26T13:26:29;8.97;;;8.10;;
1677;SDS011;6034;46.864;15.216;2023-06-26T13:28:57;7.30;;;6.70;;
1677;SDS011;6034;46.864;15.216;2023-06-26T13:31:25;7.77;;;7.07;;
1677;SDS011;6034;46.864;15.216;2023-06-26T13:33:52;7.70;;;6.60;;
1677;SDS011;6034;46.864;15.216;2023-06-26T13:36:21;8.17;;;7.33;;
1677;SDS011;6034;46.864;15.216;2023-06-26T13:38:50;7.40;;;6.67;;
1677;SDS011;6034;46.864;15.216;2023-06-26T13:41:21;8.67;;;7.87;;
1677;SDS011;6034;46.864;15.216;2023-06-26T13:43:48;8.33;;;7.63;;
1677;SDS011;6034;46.864;15.216;2023-06-26T13:46:16;8.20;;;7.40;;
1677;SDS011;6034;46.864;15.216;2023-06-26T13:48:44;7.77;;;6.97;;
1677;SDS011;6034;46.864;15.216;2023-06-26T13:51:12;8.10;;;6.10;;
1677;SDS011;6034;46.864;15.216;2023-06-26T13:53:41;8.10;;;7.33;;
1677;SDS011;6034;46.864;15.216;2023-06-26T13:56:08;7.20;;;6.60;;
1677;SDS011;6034;46.864;15.216;2023-06-26T13:58:35;8.43;;;7.63;;
1677;SDS011;6034;46.864;15.216;2023-06-26T14:01:04;8.00;;;7.27;;
1677;SDS011;6034;46.864;15.216;2023-06-26T14:03:32;8.00;;;7.20;;
1677;SDS011;6034;46.864;15.216;2023-06-26T14:05:59;8.50;;;7.70;;
1677;SDS011;6034;46.864;15.216;2023-06-26T14:08:26;7.60;;;6.90;;
1677;SDS011;6034;46.864;15.216;2023-06-26T14:10:55;7.27;;;6.67;;
1677;SDS011;6034;46.864;15.216;2023-06-26T14:13:22;8.57;;;7.83;;
1677;SDS011;6034;46.864;15.216;2023-06-26T14:15:50;8.57;;;7.87;;
1677;SDS011;6034;46.864;15.216;2023-06-26T14:18:18;8.47;;;7.77;;
1677;SDS011;6034;46.864;15.216;2023-06-26T14:20:46;8.30;;;7.40;;
1677;SDS011;6034;46.864;15.216;2023-06-26T14:23:14;7.83;;;7.13;;
1677;SDS011;6034;46.864;15.216;2023-06-26T14:25:41;8.23;;;7.40;;
1677;SDS011;6034;46.864;15.216;2023-06-26T14:28:10;9.07;;;7.03;;
1677;SDS011;6034;46.864;15.216;2023-06-26T14:30:37;8.03;;;7.33;;
1677;SDS011;6034;46.864;15.216;2023-06-26T14:33:04;8.00;;;7.30;;
1677;SDS011;6034;46.864;15.216;2023-06-26T14:35:32;8.00;;;7.20;;
1677;SDS011;6034;46.864;15.216;2023-06-26T14:38:00;7.87;;;7.17;;
1677;SDS011;6034;46.864;15.216;2023-06-26T14:40:28;7.87;;;7.17;;
1677;SDS011;6034;46.864;15.216;2023-06-26T14:42:56;8.27;;;7.57;;
1677;SDS011;6034;46.864;15.216;2023-06-26T14:45:25;8.10;;;7.30;;
1677;SDS011;6034;46.864;15.216;2023-06-26T14:47:52;7.33;;;6.67;;
1677;SDS011;6034;46.864;15.216;2023-06-26T14:50:19;8.40;;;7.60;;
1677;SDS011;6034;46.864;15.216;2023-06-26T14:52:47;7.97;;;7.20;;
1677;SDS011;6034;46.864;15.216;2023-06-26T14:55:14;7.40;;;6.80;;
1677;SDS011;6034;46.864;15.216;2023-06-26T14:57:42;8.67;;;7.87;;
1677;SDS011;6034;46.864;15.216;2023-06-26T15:00:10;8.77;;;8.00;;
1677;SDS011;6034;46.864;15.216;2023-06-26T15:02:40;8.03;;;7.33;;
1677;SDS011;6034;46.864;15.216;2023-06-26T15:05:08;8.33;;;7.53;;
1677;SDS011;6034;46.864;15.216;2023-06-26T15:07:35;8.63;;;7.20;;
1677;SDS011;6034;46.864;15.216;2023-06-26T15:10:03;8.20;;;7.20;;
1677;SDS011;6034;46.864;15.216;2023-06-26T15:12:31;9.20;;;8.30;;
1677;SDS011;6034;46.864;15.216;2023-06-26T15:14:59;8.30;;;7.50;;
1677;SDS011;6034;46.864;15.216;2023-06-26T15:17:26;8.57;;;7.77;;
1677;SDS011;6034;46.864;15.216;2023-06-26T15:19:55;7.80;;;7.03;;
1677;SDS011;6034;46.864;15.216;2023-06-26T15:22:22;8.50;;;7.70;;
1677;SDS011;6034;46.864;15.216;2023-06-26T15:24:53;8.10;;;7.30;;
1677;SDS011;6034;46.864;15.216;2023-06-26T15:27:20;8.53;;;7.83;;
1677;SDS011;6034;46.864;15.216;2023-06-26T15:29:47;8.43;;;7.63;;
1677;SDS011;6034;46.864;15.216;2023-06-26T15:32:15;8.40;;;7.60;;
1677;SDS011;6034;46.864;15.216;2023-06-26T15:34:42;8.00;;;7.30;;
1677;SDS011;6034;46.864;15.216;2023-06-26T15:37:12;7.50;;;6.80;;
1677;SDS011;6034;46.864;15.216;2023-06-26T15:39:39;8.20;;;7.47;;
1677;SDS011;6034;46.864;15.216;2023-06-26T15:42:06;9.60;;;8.60;;
1677;SDS011;6034;46.864;15.216;2023-06-26T15:44:34;7.93;;;7.23;;
1677;SDS011;6034;46.864;15.216;2023-06-26T15:47:02;9.33;;;8.53;;
1677;SDS011;6034;46.864;15.216;2023-06-26T15:49:29;8.37;;;7.57;;
1677;SDS011;6034;46.864;15.216;2023-06-26T15:51:57;7.87;;;7.20;;
1677;SDS011;6034;46.864;15.216;2023-06-26T15:54:26;8.50;;;7.70;;
1677;SDS011;6034;46.864;15.216;2023-06-26T15:56:53;7.90;;;6.80;;
1677;SDS011;6034;46.864;15.216;2023-06-26T15:59:21;9.13;;;7.40;;
1677;SDS011;6034;46.864;15.216;2023-06-26T16:01:48;8.00;;;7.20;;
1677;SDS011;6034;46.864;15.216;2023-06-26T16:04:16;7.93;;;7.23;;
1677;SDS011;6034;46.864;15.216;2023-06-26T16:06:44;7.50;;;6.87;;
1677;SDS011;6034;46.864;15.216;2023-06-26T16:09:11;8.10;;;7.40;;
1677;SDS011;6034;46.864;15.216;2023-06-26T16:11:41;8.37;;;7.57;;
1677;SDS011;6034;46.864;15.216;2023-06-26T16:14:09;7.80;;;7.10;;
1677;SDS011;6034;46.864;15.216;2023-06-26T16:16:36;8.13;;;7.43;;
1677;SDS011;6034;46.864;15.216;2023-06-26T16:19:04;8.00;;;7.30;;
1677;SDS011;6034;46.864;15.216;2023-06-26T16:21:33;8.17;;;7.37;;
1677;SDS011;6034;46.864;15.216;2023-06-26T16:24:00;9.27;;;7.13;;
1677;SDS011;6034;46.864;15.216;2023-06-26T16:26:27;9.00;;;8.13;;
1677;SDS011;6034;46.864;15.216;2023-06-26T16:28:56;7.73;;;7.03;;
1677;SDS011;6034;46.864;15.216;2023-06-26T16:31:24;8.47;;;7.77;;
1677;SDS011;6034;46.864;15.216;2023-06-26T16:33:52;8.70;;;7.80;;
1677;SDS011;6034;46.864;15.216;2023-06-26T16:36:20;8.03;;;7.33;;
1677;SDS011;6034;46.864;15.216;2023-06-26T16:38:48;8.10;;;7.40;;
1677;SDS011;6034;46.864;15.216;2023-06-26T16:41:16;9.00;;;8.20;;
1677;SDS011;6034;46.864;15.216;2023-06-26T16:43:43;7.63;;;6.97;;
1677;SDS011;6034;46.864;15.216;2023-06-26T16:46:12;8.37;;;7.60;;
1677;SDS011;6034;46.864;15.216;2023-06-26T16:48:39;7.60;;;6.80;;
1677;SDS011;6034;46.864;15.216;2023-06-26T16:51:07;7.77;;;7.07;;
1677;SDS011;6034;46.864;15.216;2023-06-26T16:53:34;8.40;;;7.70;;
1677;SDS011;6034;46.864;15.216;2023-06-26T16:56:01;8.40;;;7.60;;
1677;SDS011;6034;46.864;15.216;2023-06-26T16:58:29;8.33;;;7.53;;
1677;SDS011;6034;46.864;15.216;2023-06-26T17:00:57;8.20;;;7.40;;
1677;SDS011;6034;46.864;15.216;2023-06-26T17:03:26;8.90;;;7.23;;
1677;SDS011;6034;46.864;15.216;2023-06-26T17:05:54;8.67;;;7.87;;
1677;SDS011;6034;46.864;15.216;2023-06-26T17:08:21;8.20;;;7.50;;
1677;SDS011;6034;46.864;15.216;2023-06-26T17:10:48;8.17;;;7.37;;
1677;SDS011;6034;46.864;15.216;2023-06-26T17:13:16;8.40;;;7.60;;
1677;SDS011;6034;46.864;15.216;2023-06-26T17:15:43;9.03;;;8.10;;
1677;SDS011;6034;46.864;15.216;2023-06-26T17:18:11;8.60;;;7.80;;
1677;SDS011;6034;46.864;15.216;2023-06-26T17:20:40;8.47;;;7.60;;
1677;SDS011;6034;46.864;15.216;2023-06-26T17:23:07;8.43;;;7.57;;
1677;SDS011;6034;46.864;15.216;2023-06-26T17:25:35;8.57;;;7.67;;
1677;SDS011;6034;46.864;15.216;2023-06-26T17:28:02;7.67;;;6.97;;
1677;SDS011;6034;46.864;15.216;2023-06-26T17:30:30;8.13;;;7.37;;
1677;SDS011;6034;46.864;15.216;2023-06-26T17:32:58;7.23;;;6.63;;
1677;SDS011;6034;46.864;15.216;2023-06-26T17:35:28;8.70;;;8.00;;
1677;SDS011;6034;46.864;15.216;2023-06-26T17:37:58;7.90;;;7.20;;
1677;SDS011;6034;46.864;15.216;2023-06-26T17:40:25;7.73;;;6.80;;
1677;SDS011;6034;46.864;15.216;2023-06-26T17:42:52;7.90;;;7.20;;
1677;SDS011;6034;46.864;15.216;2023-06-26T17:45:20;8.50;;;7.80;;
1677;SDS011;6034;46.864;15.216;2023-06-26T17:47:47;8.23;;;7.47;;
1677;SDS011;6034;46.864;15.216;2023-06-26T17:50:15;8.80;;;7.80;;
1677;SDS011;6034;46.864;15.216;2023-06-26T17:52:43;7.77;;;7.07;;
1677;SDS011;6034;46.864;15.216;2023-06-26T17:55:12;7.53;;;6.83;;
1677;SDS011;6034;46.864;15.216;2023-06-26T17:57:39;7.73;;;6.97;;
1677;SDS011;6034;46.864;15.216;2023-06-26T18:00:07;8.17;;;7.47;;
1677;SDS011;6034;46.864;15.216;2023-06-26T18:02:36;7.70;;;7.00;;
1677;SDS011;6034;46.864;15.216;2023-06-26T18:05:05;7.23;;;6.53;;
1677;SDS011;6034;46.864;15.216;2023-06-26T18:07:34;7.80;;;7.07;;
1677;SDS011;6034;46.864;15.216;2023-06-26T18:10:03;8.27;;;7.57;;
1677;SDS011;6034;46.864;15.216;2023-06-26T18:12:32;8.20;;;7.27;;
1677;SDS011;6034;46.864;15.216;2023-06-26T18:15:00;8.17;;;7.23;;
1677;SDS011;6034;46.864;15.216;2023-06-26T18:17:28;7.13;;;6.50;;
1677;SDS011;6034;46.864;15.216;2023-06-26T18:19:56;8.60;;;7.23;;
1677;SDS011;6034;46.864;15.216;2023-06-26T18:22:24;7.90;;;7.20;;
1677;SDS011;6034;46.864;15.216;2023-06-26T18:24:52;7.57;;;6.80;;
1677;SDS011;6034;46.864;15.216;2023-06-26T18:27:19;6.73;;;6.13;;
1677;SDS011;6034;46.864;15.216;2023-06-26T18:29:48;8.30;;;7.60;;
1677;SDS011;6034;46.864;15.216;2023-06-26T18:32:16;7.53;;;6.83;;
1677;SDS011;6034;46.864;15.216;2023-06-26T18:34:44;9.10;;;6.63;;
1677;SDS011;6034;46.864;15.216;2023-06-26T18:37:11;7.63;;;6.93;;
1677;SDS011;6034;46.864;15.216;2023-06-26T18:39:40;7.43;;;6.67;;
1677;SDS011;6034;46.864;15.216;2023-06-26T18:42:08;8.10;;;7.30;;
1677;SDS011;6034;46.864;15.216;2023-06-26T18:44:36;7.90;;;7.20;;
1677;SDS011;6034;46.864;15.216;2023-06-26T18:47:05;7.10;;;6.30;;
1677;SDS011;6034;46.864;15.216;2023-06-26T18:49:33;7.67;;;6.97;;
1677;SDS011;6034;46.864;15.216;2023-06-26T18:52:01;8.57;;;7.77;;
1677;SDS011;6034;46.864;15.216;2023-06-26T18:54:29;7.63;;;6.93;;
1677;SDS011;6034;46.864;15.216;2023-06-26T18:56:56;8.40;;;7.60;;
1677;SDS011;6034;46.864;15.216;2023-06-26T18:59:26;8.10;;;7.40;;
1677;SDS011;6034;46.864;15.216;2023-06-26T19:01:53;8.20;;;7.40;;
1677;SDS011;6034;46.864;15.216;2023-06-26T19:04:23;8.60;;;7.80;;
1677;SDS011;6034;46.864;15.216;2023-06-26T19:06:51;7.90;;;7.10;;
1677;SDS011;6034;46.864;15.216;2023-06-26T19:09:19;7.63;;;6.83;;
1677;SDS011;6034;46.864;15.216;2023-06-26T19:11:49;9.33;;;6.87;;
1677;SDS011;6034;46.864;15.216;2023-06-26T19:14:17;8.43;;;7.73;;
1677;SDS011;6034;46.864;15.216;2023-06-26T19:16:45;7.43;;;6.73;;
1677;SDS011;6034;46.864;15.216;2023-06-26T19:19:12;8.20;;;7.40;;
1677;SDS011;6034;46.864;15.216;2023-06-26T19:21:42;7.43;;;6.73;;
1677;SDS011;6034;46.864;15.216;2023-06-26T19:24:09;7.37;;;6.67;;
1677;SDS011;6034;46.864;15.216;2023-06-26T19:26:37;7.40;;;6.70;;
1677;SDS011;6034;46.864;15.216;2023-06-26T19:29:06;8.23;;;6.57;;
1677;SDS011;6034;46.864;15.216;2023-06-26T19:31:33;8.10;;;7.30;;
1677;SDS011;6034;46.864;15.216;2023-06-26T19:34:02;7.93;;;7.13;;
1677;SDS011;6034;46.864;15.216;2023-06-26T19:36:30;8.03;;;7.23;;
1677;SDS011;6034;46.864;15.216;2023-06-26T19:39:00;8.70;;;7.80;;
1677;SDS011;6034;46.864;15.216;2023-06-26T19:41:28;8.27;;;7.50;;
1677;SDS011;6034;46.864;15.216;2023-06-26T19:43:56;8.10;;;7.30;;
1677;SDS011;6034;46.864;15.216;2023-06-26T19:46:23;8.77;;;7.30;;
1677;SDS011;6034;46.864;15.216;2023-06-26T19:48:56;7.67;;;6.97;;
1677;SDS011;6034;46.864;15.216;2023-06-26T19:51:24;8.13;;;7.33;;
1677;SDS011;6034;46.864;15.216;2023-06-26T19:53:51;8.80;;;7.70;;
1677;SDS011;6034;46.864;15.216;2023-06-26T19:56:21;8.10;;;7.33;;
1677;SDS011;6034;46.864;15.216;2023-06-26T19:58:50;8.53;;;7.73;;
1677;SDS011;6034;46.864;15.216;2023-06-26T20:01:17;8.63;;;6.97;;
1677;SDS011;6034;46.864;15.216;2023-06-26T20:03:46;8.90;;;7.90;;
1677;SDS011;6034;46.864;15.216;2023-06-26T20:06:13;7.53;;;6.83;;
1677;SDS011;6034;46.864;15.216;2023-06-26T20:08:41;8.87;;;7.97;;